createdAt,value
2023-04-15T00:04:53.514Z,10.12
2023-04-15T00:09:59.131Z,10.12
2023-04-15T00:15:05.492Z,10.10
2023-04-15T00:20:12.194Z,10.08
2023-04-15T00:25:18.033Z,10.10
2023-04-15T00:30:24.098Z,10.08
2023-04-15T00:35:29.881Z,10.09
2023-04-15T00:40:35.726Z,10.12
2023-04-15T00:45:41.258Z,10.14
2023-04-15T00:50:47.048Z,10.08
2023-04-15T00:55:52.715Z,10.00
2023-04-15T01:01:00.120Z,9.94
2023-04-15T01:06:06.634Z,9.90
2023-04-15T01:11:14.922Z,9.88
2023-04-15T01:16:21.309Z,9.85
2023-04-15T01:21:26.973Z,9.83
2023-04-15T01:26:32.544Z,9.77
2023-04-15T01:31:38.681Z,9.65
2023-04-15T01:36:44.973Z,9.53
2023-04-15T01:41:50.410Z,9.49
2023-04-15T01:46:56.037Z,9.48
2023-04-15T01:52:01.945Z,9.51
2023-04-15T01:57:07.746Z,9.54
2023-04-15T02:02:13.422Z,9.55
2023-04-15T02:07:19.635Z,9.51
2023-04-15T02:12:25.593Z,9.43
2023-04-15T02:17:35.168Z,9.39
2023-04-15T02:22:40.868Z,9.37
2023-04-15T02:27:46.542Z,9.33
2023-04-15T02:32:52.522Z,9.27
2023-04-15T02:37:58.063Z,9.25
2023-04-15T02:43:05.397Z,9.21
2023-04-15T02:48:11.633Z,9.23
2023-04-15T02:53:17.613Z,9.26
2023-04-15T02:58:23.174Z,9.27
2023-04-15T03:03:28.836Z,9.30
2023-04-15T03:08:34.389Z,9.25
2023-04-15T03:13:41.919Z,9.26
2023-04-15T03:18:51.989Z,9.22
2023-04-15T03:23:58.430Z,9.20
2023-04-15T03:29:04.114Z,9.21
2023-04-15T03:34:09.898Z,9.17
2023-04-15T03:39:15.991Z,9.16
2023-04-15T03:44:21.413Z,9.15
2023-04-15T03:49:26.811Z,9.15
2023-04-15T03:54:32.354Z,9.17
2023-04-15T03:59:37.871Z,9.22
2023-04-15T04:04:43.891Z,9.24
2023-04-15T04:09:49.371Z,9.29
2023-04-15T04:14:54.729Z,9.31
2023-04-15T04:20:00.252Z,9.32
2023-04-15T04:25:07.215Z,9.31
2023-04-15T04:30:13.724Z,9.28
2023-04-15T04:35:19.315Z,9.24
2023-04-15T04:40:25.078Z,9.18
2023-04-15T04:45:30.847Z,9.12
2023-04-15T04:50:36.716Z,9.09
2023-04-15T04:55:43.459Z,9.09
2023-04-15T05:00:49.423Z,9.02
2023-04-15T05:05:55.155Z,9.01
2023-04-15T05:11:00.938Z,8.96
2023-04-15T05:16:07.721Z,8.94
2023-04-15T05:21:14.803Z,8.94
2023-04-15T05:26:21.715Z,8.94
2023-04-15T05:31:27.481Z,8.95
2023-04-15T05:36:33.094Z,8.96
2023-04-15T05:41:38.560Z,8.95
2023-04-15T05:46:44.435Z,8.97
2023-04-15T05:51:50.148Z,9.00
2023-04-15T05:56:57.595Z,9.02
2023-04-15T06:02:03.112Z,9.01
2023-04-15T06:07:08.760Z,9.00
2023-04-15T06:12:14.858Z,9.01
2023-04-15T06:17:20.326Z,9.00
2023-04-15T06:22:26.209Z,8.98
2023-04-15T06:27:32.041Z,8.97
2023-04-15T06:38:29.372Z,9.02
2023-04-15T06:43:35.113Z,9.00
2023-04-15T06:48:41.706Z,9.00
2023-04-15T06:53:47.722Z,9.01
2023-04-15T06:58:53.205Z,9.02
2023-04-15T07:03:58.865Z,9.01
2023-04-15T07:09:05.723Z,8.95
2023-04-15T07:14:11.542Z,8.94
2023-04-15T07:19:17.517Z,8.97
2023-04-15T07:24:26.715Z,9.04
2023-04-15T07:29:32.489Z,9.11
2023-04-15T07:34:38.160Z,9.14
2023-04-15T07:39:43.880Z,9.17
2023-04-15T07:44:49.280Z,9.28
2023-04-15T07:49:54.682Z,9.36
2023-04-15T07:55:00.357Z,9.42
2023-04-15T08:00:07.974Z,9.46
2023-04-15T08:05:19.958Z,9.40
2023-04-15T08:10:25.917Z,9.42
2023-04-15T08:15:33.043Z,9.43
2023-04-15T08:20:38.446Z,9.49
2023-04-15T08:25:44.113Z,9.53
2023-04-15T08:30:49.767Z,9.65
2023-04-15T08:35:55.111Z,9.74
2023-04-15T08:41:04.392Z,9.79
2023-04-15T08:46:12.540Z,9.82
2023-04-15T08:51:18.565Z,9.89
2023-04-15T08:56:27.137Z,10.00
2023-04-15T09:01:33.354Z,10.05
2023-04-15T09:06:42.108Z,10.09
2023-04-15T09:11:47.815Z,10.20
2023-04-15T09:17:00.882Z,10.29
2023-04-15T09:22:06.588Z,10.26
2023-04-15T09:27:16.265Z,10.32
2023-04-15T09:32:25.238Z,10.29
2023-04-15T09:37:37.769Z,10.16
2023-04-15T09:42:57.918Z,10.06
2023-04-15T09:48:18.733Z,10.14
2023-04-15T09:53:26.008Z,10.24
2023-04-15T09:58:33.725Z,10.37
2023-04-15T10:03:43.052Z,10.46
2023-04-15T10:08:49.799Z,10.56
2023-04-15T10:13:56.447Z,10.61
2023-04-15T10:19:04.802Z,10.60
2023-04-15T10:24:10.891Z,10.57
2023-04-15T10:29:16.741Z,10.55
2023-04-15T10:34:24.225Z,10.47
2023-04-15T10:39:44.580Z,10.50
2023-04-15T10:44:56.901Z,10.66
2023-04-15T10:50:03.657Z,10.83
2023-04-15T10:55:16.404Z,10.99
2023-04-15T11:00:26.901Z,11.14
2023-04-15T11:05:52.481Z,11.11
2023-04-15T11:10:58.556Z,11.21
2023-04-15T11:16:04.566Z,11.29
2023-04-15T11:21:10.422Z,11.30
2023-04-15T11:26:16.252Z,11.31
2023-04-15T11:31:23.960Z,11.32
2023-04-15T11:36:32.222Z,11.46
2023-04-15T11:41:38.506Z,11.47
2023-04-15T11:46:45.672Z,11.48
2023-04-15T11:51:51.359Z,11.50
2023-04-15T11:56:57.465Z,11.51
2023-04-15T12:02:14.117Z,11.38
2023-04-15T12:07:19.804Z,11.17
2023-04-15T12:12:28.855Z,10.96
2023-04-15T12:17:51.535Z,10.90
2023-04-15T12:23:07.130Z,10.86
2023-04-15T12:28:13.791Z,10.88
2023-04-15T12:33:19.405Z,10.88
2023-04-15T12:38:25.359Z,10.83
2023-04-15T12:43:31.323Z,10.70
2023-04-15T12:48:36.737Z,10.62
2023-04-15T12:53:42.666Z,10.66
2023-04-15T12:58:48.328Z,10.70
2023-04-15T13:03:54.254Z,10.76
2023-04-15T13:09:02.348Z,10.78
2023-04-15T13:14:11.893Z,10.75
2023-04-15T13:19:17.771Z,10.66
2023-04-15T13:24:23.510Z,10.53
2023-04-15T13:29:29.208Z,10.48
2023-04-15T13:34:34.747Z,10.46
2023-04-15T13:39:41.710Z,10.45
2023-04-15T13:44:47.141Z,10.67
2023-04-15T13:49:54.218Z,10.97
2023-04-15T13:55:18.406Z,11.13
2023-04-15T14:00:25.508Z,11.19
2023-04-15T14:05:31.110Z,11.33
2023-04-15T14:10:36.653Z,11.30
2023-04-15T14:15:42.444Z,11.38
2023-04-15T14:20:47.851Z,11.66
2023-04-15T14:25:53.411Z,11.64
2023-04-15T14:30:58.948Z,11.51
2023-04-15T14:36:04.910Z,11.46
2023-04-15T14:41:11.119Z,11.58
2023-04-15T14:46:16.949Z,11.74
2023-04-15T14:51:23.033Z,11.85
2023-04-15T14:56:28.578Z,11.81
2023-04-15T15:01:34.802Z,11.77
2023-04-15T15:06:42.566Z,11.64
2023-04-15T15:11:48.099Z,11.57
2023-04-15T15:16:53.570Z,11.51
2023-04-15T15:21:58.954Z,11.52
2023-04-15T15:27:05.988Z,11.44
2023-04-15T15:32:11.775Z,11.31
2023-04-15T15:37:17.858Z,11.25
2023-04-15T15:42:23.485Z,11.19
2023-04-15T15:47:29.265Z,11.21
2023-04-15T15:52:34.719Z,11.23
2023-04-15T15:57:41.091Z,11.25
2023-04-15T16:07:55.256Z,11.06
2023-04-15T16:13:01.924Z,10.91
2023-04-15T16:18:07.482Z,10.75
2023-04-15T16:23:15.581Z,10.72
2023-04-15T16:28:26.770Z,10.59
2023-04-15T16:33:33.861Z,10.53
2023-04-15T16:38:39.484Z,10.47
2023-04-15T16:43:46.107Z,10.42
2023-04-15T16:48:51.638Z,10.40
2023-04-15T16:53:57.050Z,10.36
2023-04-15T16:59:02.824Z,10.25
2023-04-15T17:04:08.694Z,10.12
2023-04-15T17:09:14.316Z,10.06
2023-04-15T17:14:20.280Z,10.00
2023-04-15T17:19:26.809Z,9.91
2023-04-15T17:24:32.589Z,9.81
2023-04-15T17:29:39.706Z,9.68
2023-04-15T17:34:49.897Z,9.58
2023-04-15T17:39:56.742Z,9.51
2023-04-15T17:45:02.344Z,9.46
2023-04-15T17:50:10.283Z,9.42
2023-04-15T17:55:15.793Z,9.39
2023-04-15T18:00:23.105Z,9.34
2023-04-15T18:05:29.601Z,9.31
2023-04-15T18:10:36.486Z,9.31
2023-04-15T18:15:42.067Z,9.31
2023-04-15T18:20:47.464Z,9.29
2023-04-15T18:25:53.324Z,9.30
2023-04-15T18:30:59.282Z,9.31
2023-04-15T18:36:05.961Z,9.32
2023-04-15T18:41:12.601Z,9.31
2023-04-15T18:46:19.047Z,9.29
2023-04-15T18:51:24.989Z,9.28
2023-04-15T18:56:32.187Z,9.26
2023-04-15T19:01:38.152Z,9.25
2023-04-15T19:06:46.640Z,9.17
2023-04-15T19:11:52.352Z,9.13
2023-04-15T19:16:57.879Z,9.08
2023-04-15T19:22:04.945Z,9.06
2023-04-15T19:27:10.643Z,9.05
2023-04-15T19:32:16.519Z,8.99
2023-04-15T19:37:22.550Z,8.95
2023-04-15T19:42:28.072Z,8.91
2023-04-15T19:47:35.216Z,8.92
2023-04-15T19:52:41.834Z,8.92
2023-04-15T19:57:47.382Z,8.90
2023-04-15T20:02:53.088Z,8.87
2023-04-15T20:07:59.909Z,8.82
2023-04-15T20:13:06.138Z,8.79
2023-04-15T20:18:11.872Z,8.77
2023-04-15T20:23:17.616Z,8.75
2023-04-15T20:28:26.198Z,8.71
2023-04-15T20:33:31.843Z,8.71
2023-04-15T20:38:37.559Z,8.67
2023-04-15T20:43:43.365Z,8.63
2023-04-15T20:48:48.784Z,8.62
2023-04-15T20:53:54.184Z,8.58
2023-04-15T20:59:00.360Z,8.55
2023-04-15T21:04:06.166Z,8.49
2023-04-15T21:09:11.698Z,8.52
2023-04-15T21:14:17.368Z,8.53
2023-04-15T21:19:22.701Z,8.47
2023-04-15T21:24:28.501Z,8.44
2023-04-15T21:29:34.190Z,8.42
2023-04-15T21:34:40.019Z,8.37
2023-04-15T21:39:45.438Z,8.36
2023-04-15T21:44:50.887Z,8.32
2023-04-15T21:49:56.320Z,8.28
2023-04-15T21:55:01.956Z,8.27
2023-04-15T22:00:10.826Z,8.29
2023-04-15T22:05:16.743Z,8.29
2023-04-15T22:10:22.975Z,8.30
2023-04-15T22:15:28.911Z,8.32
2023-04-15T22:20:34.532Z,8.28
2023-04-15T22:25:41.148Z,8.25
2023-04-15T22:30:46.543Z,8.27
2023-04-15T22:38:46.497Z,8.22
2023-04-15T22:43:51.840Z,8.14
2023-04-15T22:48:57.197Z,8.12
2023-04-15T22:54:02.705Z,8.11
2023-04-15T22:59:08.493Z,8.10
2023-04-15T23:04:26.266Z,8.02
2023-04-15T23:09:33.230Z,8.00
2023-04-15T23:14:38.767Z,7.96
2023-04-15T23:19:44.814Z,7.95
2023-04-15T23:24:50.327Z,7.96
2023-04-15T23:29:56.185Z,7.99
2023-04-15T23:35:01.542Z,7.99
2023-04-15T23:40:09.742Z,7.96
2023-04-15T23:45:15.171Z,7.99
2023-04-15T23:50:20.687Z,8.04
2023-04-15T23:55:26.766Z,8.02
